createdAt,value
2018-09-25T00:00:27.206Z,8.60
2018-09-25T00:01:47.703Z,10.50
2018-09-25T00:02:47.695Z,12.70
2018-09-25T00:03:48.578Z,10.20
2018-09-25T00:04:48.616Z,11.70
2018-09-25T00:05:48.701Z,16.00
2018-09-25T00:06:47.777Z,11.60
2018-09-25T00:08:08.229Z,8.30
2018-09-25T00:09:30.131Z,11.70
2018-09-25T00:10:31.181Z,13.80
2018-09-25T00:11:31.266Z,13.30
2018-09-25T00:12:30.164Z,10.10
2018-09-25T00:13:30.432Z,16.30
2018-09-25T00:14:30.516Z,11.50
2018-09-25T00:15:30.485Z,10.30
2018-09-25T00:16:30.491Z,10.50
2018-09-25T00:17:33.039Z,13.20
2018-09-25T00:18:30.995Z,6.90
2018-09-25T00:19:31.088Z,10.20
2018-09-25T00:20:31.292Z,20.00
2018-09-25T00:21:30.277Z,13.20
2018-09-25T00:22:30.740Z,11.10
2018-09-25T00:23:30.671Z,12.70
2018-09-25T00:24:51.526Z,10.70
2018-09-25T00:25:51.461Z,12.80
2018-09-25T00:27:14.171Z,11.50
2018-09-25T00:28:35.943Z,11.10
2018-09-25T00:29:35.925Z,13.00
2018-09-25T00:30:36.231Z,13.60
2018-09-25T00:31:36.102Z,11.60
2018-09-25T00:32:35.867Z,11.10
2018-09-25T00:33:35.980Z,15.90
2018-09-25T00:34:35.852Z,12.40
2018-09-25T00:35:36.025Z,11.40
2018-09-25T00:36:36.055Z,14.80
2018-09-25T00:37:36.107Z,11.20
2018-09-25T00:38:36.360Z,12.70
2018-09-25T00:39:56.937Z,10.90
2018-09-25T00:40:56.867Z,11.00
2018-09-25T00:42:18.475Z,13.30
2018-09-25T00:43:18.395Z,10.50
2018-09-25T00:44:19.276Z,12.10
2018-09-25T00:45:18.331Z,12.30
2018-09-25T00:46:41.805Z,11.50
2018-09-25T00:47:45.168Z,17.20
2018-09-25T00:48:40.986Z,14.30
2018-09-25T00:49:42.866Z,11.40
2018-09-25T00:50:45.507Z,12.00
2018-09-25T00:51:44.471Z,7.30
2018-09-25T00:52:42.211Z,17.60
2018-09-25T00:54:04.061Z,7.60
2018-09-25T01:45:42.289Z,16.30
2018-09-25T01:47:05.228Z,14.90
2018-09-25T01:48:01.841Z,18.10
2018-09-25T01:48:59.892Z,17.90
2018-09-25T02:30:16.966Z,23.50
2018-09-25T02:31:37.679Z,12.80
2018-09-25T02:32:58.582Z,23.40
2018-09-25T02:33:59.435Z,15.50
2018-09-25T02:34:59.535Z,15.20
2018-09-25T02:35:59.513Z,13.30
2018-09-25T02:36:59.446Z,15.10
2018-09-25T02:37:59.622Z,14.00
2018-09-25T02:38:59.649Z,13.90
2018-09-25T02:39:58.896Z,19.20
2018-09-25T02:40:58.909Z,16.20
2018-09-25T02:41:58.927Z,16.80
2018-09-25T02:43:00.338Z,17.40
2018-09-25T02:43:59.615Z,16.50
2018-09-25T02:44:58.747Z,14.30
2018-09-25T02:45:59.664Z,16.20
2018-09-25T02:46:58.691Z,13.70
2018-09-25T02:47:58.648Z,16.50
2018-09-25T02:48:58.558Z,19.10
2018-09-25T02:49:58.555Z,15.70
2018-09-25T02:50:59.471Z,18.70
2018-09-25T02:51:59.600Z,20.50
2018-09-25T02:52:58.649Z,16.60
2018-09-25T02:53:58.793Z,19.60
2018-09-25T02:54:58.938Z,13.60
2018-09-25T02:55:59.200Z,14.60
2018-09-25T02:56:59.317Z,14.90
2018-09-25T02:57:59.421Z,16.00
2018-09-25T02:58:59.423Z,16.60
2018-09-25T02:59:59.417Z,15.00
2018-09-25T03:00:59.480Z,21.30
2018-09-25T03:01:58.734Z,87.20
2018-09-25T03:03:19.539Z,31.10
2018-09-25T03:04:40.506Z,28.60
2018-09-25T03:05:40.917Z,17.00
2018-09-25T03:06:41.179Z,19.70
2018-09-25T03:07:41.248Z,15.50
2018-09-25T03:09:02.340Z,15.30
2018-09-25T03:10:02.583Z,11.30
2018-09-25T03:11:02.850Z,10.70
2018-09-25T03:12:03.186Z,14.90
2018-09-25T03:13:09.499Z,11.90
2018-09-25T03:14:23.314Z,15.30
2018-09-25T03:15:23.584Z,19.50
2018-09-25T03:16:23.898Z,23.10
2018-09-25T03:17:23.970Z,21.90
2018-09-25T03:18:24.156Z,71.30
2018-09-25T03:19:24.320Z,63.20
2018-09-25T03:20:23.603Z,36.40
2018-09-25T03:21:23.591Z,23.90
2018-09-25T03:22:23.537Z,25.10
2018-09-25T03:23:23.757Z,20.90
2018-09-25T03:24:24.056Z,19.70
2018-09-25T03:26:05.374Z,14.80
2018-09-25T03:27:06.558Z,13.70
2018-09-25T03:28:06.585Z,19.90
2018-09-25T03:29:06.580Z,24.90
2018-09-25T03:30:05.903Z,17.00
2018-09-25T03:31:26.770Z,19.70
2018-09-25T03:32:27.573Z,18.50
2018-09-25T03:33:27.632Z,21.90
2018-09-25T03:34:48.827Z,18.00
2018-09-25T03:35:48.840Z,14.80
2018-09-25T03:36:48.971Z,15.80
2018-09-25T03:37:49.309Z,14.80
2018-09-25T03:38:49.276Z,18.00
2018-09-25T03:39:49.365Z,19.40
2018-09-25T03:40:49.288Z,15.20
2018-09-25T03:41:49.453Z,14.70
2018-09-25T03:42:51.038Z,15.00
2018-09-25T03:44:00.785Z,15.70
2018-09-25T03:44:49.642Z,18.00
2018-09-25T03:46:12.816Z,18.80
2018-09-25T03:47:13.022Z,12.60
2018-09-25T03:48:34.296Z,13.40
2018-09-25T03:49:34.118Z,16.60
2018-09-25T03:50:35.133Z,13.50
2018-09-25T03:51:34.597Z,11.80
2018-09-25T03:52:34.430Z,13.20
2018-09-25T03:53:36.283Z,10.80
2018-09-25T03:54:36.570Z,15.10
2018-09-25T03:55:34.889Z,11.30
2018-09-25T03:56:34.790Z,13.10
2018-09-25T03:57:35.636Z,10.70
2018-09-25T03:58:39.660Z,9.50
2018-09-25T03:59:34.681Z,10.70
2018-09-25T04:00:35.354Z,9.60
2018-09-25T04:01:35.244Z,5.30
2018-09-25T04:02:35.396Z,8.30
2018-09-25T04:03:35.634Z,8.20
2018-09-25T04:04:36.425Z,14.40
2018-09-25T04:05:35.145Z,7.90
2018-09-25T04:06:34.526Z,9.10
2018-09-25T04:07:34.532Z,9.20
2018-09-25T04:08:34.482Z,12.30
2018-09-25T04:09:35.848Z,10.20
2018-09-25T04:10:34.604Z,10.80
2018-09-25T04:11:34.998Z,13.80
2018-09-25T04:12:34.575Z,11.10
2018-09-25T04:13:56.713Z,203.60
2018-09-25T04:14:56.977Z,146.20
2018-09-25T04:15:56.981Z,42.40
2018-09-25T04:16:56.492Z,26.10
2018-09-25T04:17:56.580Z,40.00
2018-09-25T04:18:56.678Z,19.00
2018-09-25T04:19:56.853Z,17.00
2018-09-25T04:20:57.001Z,21.90
2018-09-25T04:21:55.995Z,20.10
2018-09-25T04:22:58.457Z,16.10
2018-09-25T04:23:57.041Z,18.70
2018-09-25T04:24:56.343Z,17.50
2018-09-25T04:25:56.307Z,20.10
2018-09-25T04:26:57.914Z,14.60
2018-09-25T04:27:56.257Z,16.20
2018-09-25T04:28:56.500Z,17.60
2018-09-25T04:29:59.035Z,22.70
2018-09-25T04:30:57.030Z,18.00
2018-09-25T04:31:57.097Z,15.40
2018-09-25T04:32:57.276Z,15.60
2018-09-25T04:33:57.466Z,17.20
2018-09-25T04:34:57.988Z,15.00
2018-09-25T04:35:58.190Z,20.80
2018-09-25T04:36:56.426Z,19.60
2018-09-25T04:38:01.292Z,24.90
2018-09-25T04:38:58.775Z,17.20
2018-09-25T04:39:56.983Z,17.90
2018-09-25T04:40:56.919Z,18.00
2018-09-25T04:41:56.833Z,20.10
2018-09-25T04:42:57.019Z,17.60
2018-09-25T04:43:56.227Z,19.50
2018-09-25T04:44:57.172Z,17.50
2018-09-25T04:45:56.343Z,16.10
2018-09-25T04:46:56.334Z,14.10
2018-09-25T04:47:56.391Z,20.40
2018-09-25T04:48:56.531Z,24.40
2018-09-25T04:49:56.599Z,19.10
2018-09-25T04:50:56.686Z,18.20
2018-09-25T04:52:17.722Z,18.70
2018-09-25T04:53:17.664Z,13.10
2018-09-25T04:54:17.818Z,12.40
2018-09-25T04:55:18.004Z,17.40
2018-09-25T04:56:18.169Z,14.80
2018-09-25T04:57:18.505Z,10.60
2018-09-25T04:58:17.773Z,12.70
2018-09-25T04:59:17.581Z,20.20
2018-09-25T05:00:19.052Z,12.40
2018-09-25T05:01:18.157Z,19.90
2018-09-25T05:02:18.274Z,19.00
2018-09-25T05:03:18.475Z,15.20
2018-09-25T05:04:38.583Z,13.10
2018-09-25T05:05:38.996Z,13.10
2018-09-25T05:06:39.455Z,12.40
2018-09-25T05:07:39.447Z,18.70
2018-09-25T05:09:02.467Z,16.70
2018-09-25T05:10:01.652Z,24.80
2018-09-25T05:11:01.684Z,13.50
2018-09-25T05:12:01.843Z,14.00
2018-09-25T05:13:01.938Z,9.50
2018-09-25T05:14:02.245Z,10.00
2018-09-25T05:15:24.410Z,8.70
2018-09-25T05:16:24.530Z,8.90
2018-09-25T05:17:24.417Z,8.50
2018-09-25T05:18:24.511Z,15.60
2018-09-25T05:19:24.536Z,11.40
2018-09-25T05:20:24.634Z,10.10
2018-09-25T05:21:24.946Z,16.90
2018-09-25T05:22:25.089Z,14.80
2018-09-25T05:23:25.420Z,22.50
2018-09-25T05:24:24.583Z,24.40
2018-09-25T05:25:45.627Z,27.90
2018-09-25T05:27:06.736Z,23.20
2018-09-25T05:28:06.991Z,27.50
2018-09-25T05:29:06.942Z,24.10
2018-09-25T05:30:07.250Z,23.40
2018-09-25T05:31:07.509Z,24.20
2018-09-25T05:32:07.649Z,24.50
2018-09-25T05:33:08.149Z,22.30
2018-09-25T05:34:07.668Z,20.90
2018-09-25T05:35:08.063Z,24.10
2018-09-25T05:36:28.458Z,23.80
2018-09-25T05:37:29.024Z,28.10
2018-09-25T05:38:29.250Z,29.80
2018-09-25T05:39:28.476Z,28.90
2018-09-25T05:40:28.793Z,22.60
2018-09-25T05:41:29.204Z,24.30
2018-09-25T05:42:28.613Z,27.60
2018-09-25T05:43:29.057Z,29.30
2018-09-25T05:44:50.086Z,27.30
2018-09-25T05:45:50.231Z,25.90
2018-09-25T05:46:50.452Z,28.30
2018-09-25T05:47:50.498Z,27.20
2018-09-25T05:48:50.802Z,26.40
2018-09-25T05:49:50.179Z,26.70
2018-09-25T05:50:50.609Z,22.80
2018-09-25T05:51:50.918Z,26.60
2018-09-25T05:52:49.953Z,29.90
2018-09-25T05:53:50.112Z,25.00
2018-09-25T05:55:32.333Z,30.10
2018-09-25T05:56:32.699Z,25.10
2018-09-25T05:57:33.001Z,28.10
2018-09-25T05:58:54.323Z,25.60
2018-09-25T05:59:54.604Z,34.10
2018-09-25T06:00:54.924Z,29.90
2018-09-25T06:02:37.415Z,31.90
2018-09-25T06:03:38.301Z,24.60
2018-09-25T06:04:37.426Z,30.50
2018-09-25T06:05:37.841Z,33.50
2018-09-25T06:06:38.275Z,32.90
2018-09-25T06:07:58.009Z,26.40
2018-09-25T06:08:58.197Z,28.00
2018-09-25T06:09:58.541Z,30.70
2018-09-25T06:10:58.802Z,30.20
2018-09-25T06:11:58.883Z,31.10
2018-09-25T06:12:59.147Z,29.20
2018-09-25T06:13:58.339Z,24.50
2018-09-25T06:15:19.855Z,31.30
2018-09-25T06:16:20.093Z,25.60
2018-09-25T06:17:20.500Z,28.70
2018-09-25T06:18:19.753Z,30.40
2018-09-25T06:19:40.938Z,26.30
2018-09-25T06:20:41.080Z,29.20
2018-09-25T06:21:41.252Z,25.90
2018-09-25T06:22:41.319Z,26.60
2018-09-25T06:23:41.824Z,27.50
2018-09-25T06:24:41.090Z,30.90
2018-09-25T06:26:02.067Z,27.10
2018-09-25T06:27:02.384Z,29.20
2018-09-25T06:28:02.597Z,29.20
2018-09-25T06:29:23.697Z,20.20
2018-09-25T06:30:23.955Z,21.00
2018-09-25T06:31:45.391Z,27.90
2018-09-25T06:32:45.631Z,27.30
2018-09-25T06:33:45.863Z,27.60
2018-09-25T06:34:46.118Z,24.40
2018-09-25T06:35:45.543Z,29.80
2018-09-25T06:36:45.469Z,28.50
2018-09-25T06:37:45.654Z,26.80
2018-09-25T06:38:45.710Z,27.90
2018-09-25T06:39:45.997Z,20.00
2018-09-25T06:40:46.118Z,23.80
2018-09-25T06:41:45.236Z,21.00
2018-09-25T06:42:45.670Z,18.90
2018-09-25T06:43:45.872Z,19.40
2018-09-25T06:44:46.050Z,16.10
2018-09-25T06:45:46.304Z,11.20
2018-09-25T06:46:45.587Z,14.90
2018-09-25T06:47:45.872Z,17.70
2018-09-25T06:48:45.948Z,14.00
2018-09-25T06:49:45.345Z,7.70
2018-09-25T06:50:45.592Z,9.40
2018-09-25T06:51:45.988Z,9.20
2018-09-25T06:52:46.256Z,14.60
2018-09-25T06:54:06.283Z,10.20
2018-09-25T06:55:06.449Z,10.30
2018-09-25T06:56:06.686Z,6.70
2018-09-25T06:57:06.899Z,6.50
2018-09-25T06:58:07.216Z,9.00
2018-09-25T06:59:27.327Z,5.80
2018-09-25T07:00:27.443Z,8.60
2018-09-25T07:01:27.450Z,7.90
2018-09-25T07:02:48.910Z,7.10
2018-09-25T07:03:49.039Z,9.30
2018-09-25T07:05:31.642Z,6.00
2018-09-25T07:06:53.026Z,11.70
2018-09-25T07:08:14.650Z,7.20
2018-09-25T07:09:15.083Z,6.00
2018-09-25T07:10:15.536Z,8.00
2018-09-25T07:11:14.930Z,8.60
2018-09-25T07:12:14.906Z,6.30
2018-09-25T07:13:15.114Z,12.60
2018-09-25T07:14:35.510Z,7.30
2018-09-25T07:15:35.911Z,8.30
2018-09-25T07:16:57.232Z,6.10
2018-09-25T07:17:57.227Z,5.20
2018-09-25T07:18:57.372Z,8.80
2018-09-25T07:19:57.685Z,9.10
2018-09-25T07:21:39.597Z,6.10
2018-09-25T07:22:39.856Z,7.40
2018-09-25T07:24:01.142Z,9.80
2018-09-25T07:25:01.334Z,7.60
2018-09-25T07:26:01.701Z,7.50
2018-09-25T07:27:22.745Z,11.10
2018-09-25T07:28:23.108Z,10.80
2018-09-25T07:29:23.452Z,9.20
2018-09-25T07:30:23.769Z,9.30
2018-09-25T07:31:23.754Z,4.80
2018-09-25T07:32:22.953Z,10.20
2018-09-25T07:33:23.318Z,6.20
2018-09-25T07:34:23.358Z,6.60
2018-09-25T07:35:23.820Z,10.20
2018-09-25T07:36:23.151Z,7.70
2018-09-25T07:37:44.492Z,9.40
2018-09-25T07:38:44.651Z,9.30
2018-09-25T07:39:44.951Z,7.40
2018-09-25T07:40:45.365Z,10.20
2018-09-25T07:42:05.411Z,5.70
2018-09-25T07:43:05.742Z,6.60
2018-09-25T07:44:06.000Z,6.30
2018-09-25T07:45:05.374Z,9.20
2018-09-25T07:46:05.771Z,8.70
2018-09-25T07:47:05.942Z,9.90
2018-09-25T07:48:06.198Z,6.60
2018-09-25T07:49:06.318Z,7.80
2018-09-25T07:50:05.309Z,8.20
2018-09-25T07:51:05.486Z,6.50
2018-09-25T07:52:05.677Z,7.90
2018-09-25T07:53:06.252Z,12.30
2018-09-25T07:54:05.487Z,13.60
2018-09-25T07:55:26.887Z,10.50
2018-09-25T07:56:27.117Z,14.90
2018-09-25T07:57:27.477Z,6.80
2018-09-25T07:58:27.746Z,15.20
2018-09-25T07:59:26.914Z,5.10
2018-09-25T08:00:27.005Z,6.10
2018-09-25T08:01:27.273Z,11.90
2018-09-25T08:02:27.668Z,10.20
2018-09-25T08:03:27.747Z,7.00
2018-09-25T08:04:27.112Z,8.90
2018-09-25T08:05:27.392Z,6.30
2018-09-25T08:06:27.655Z,7.30
2018-09-25T08:07:28.059Z,5.70
2018-09-25T08:08:27.090Z,5.20
2018-09-25T08:09:27.039Z,6.20
2018-09-25T08:10:27.120Z,7.70
2018-09-25T08:11:27.433Z,11.20
2018-09-25T08:12:27.545Z,7.50
2018-09-25T08:13:27.740Z,8.90
2018-09-25T08:14:29.939Z,8.40
2018-09-25T08:15:27.246Z,6.50
2018-09-25T08:16:27.781Z,7.70
2018-09-25T08:17:27.128Z,6.40
2018-09-25T08:18:27.456Z,8.00
2018-09-25T08:19:27.753Z,8.20
2018-09-25T08:20:27.061Z,5.90
2018-09-25T08:21:27.173Z,8.90
2018-09-25T08:22:27.565Z,6.60
2018-09-25T08:23:27.914Z,5.40
2018-09-25T08:24:48.361Z,8.00
2018-09-25T08:25:48.687Z,10.60
2018-09-25T08:26:48.853Z,8.30
2018-09-25T08:27:49.181Z,12.10
2018-09-25T08:28:49.251Z,6.30
2018-09-25T08:29:48.796Z,5.60
2018-09-25T08:30:48.979Z,6.60
2018-09-25T08:31:49.314Z,6.80
2018-09-25T08:32:48.563Z,8.60
2018-09-25T08:33:48.728Z,6.70
2018-09-25T08:34:48.756Z,6.30
2018-09-25T08:35:49.061Z,9.50
2018-09-25T08:36:49.045Z,6.40
2018-09-25T08:37:48.471Z,6.50
2018-09-25T08:38:48.877Z,5.60
2018-09-25T08:39:48.364Z,8.70
2018-09-25T08:41:30.856Z,7.20
2018-09-25T08:42:52.189Z,6.80
2018-09-25T08:43:52.621Z,10.70
2018-09-25T08:45:13.560Z,6.60
2018-09-25T08:46:35.048Z,6.10
2018-09-25T08:47:35.172Z,7.40
2018-09-25T08:48:35.476Z,8.20
2018-09-25T08:49:36.237Z,6.80
2018-09-25T08:50:35.378Z,8.40
2018-09-25T08:51:56.649Z,7.50
2018-09-25T08:52:56.834Z,6.90
2018-09-25T08:53:57.100Z,7.70
2018-09-25T08:54:57.190Z,11.10
2018-09-25T08:56:18.246Z,8.30
2018-09-25T08:57:18.586Z,7.40
2018-09-25T08:58:18.629Z,6.70
2018-09-25T08:59:19.275Z,7.50
2018-09-25T09:00:18.382Z,7.80
2018-09-25T09:01:39.449Z,11.60
2018-09-25T09:03:00.354Z,7.00
2018-09-25T09:04:00.328Z,8.20
2018-09-25T09:05:00.702Z,4.60
2018-09-25T09:06:22.306Z,9.30
2018-09-25T09:07:22.699Z,11.10
2018-09-25T09:08:22.016Z,9.20
2018-09-25T09:09:22.718Z,6.80
2018-09-25T09:10:44.216Z,5.80
2018-09-25T09:11:44.565Z,6.10
2018-09-25T09:12:44.960Z,8.00
2018-09-25T09:14:05.368Z,5.20
2018-09-25T09:15:05.610Z,4.60
2018-09-25T09:16:27.594Z,7.80
2018-09-25T09:17:28.074Z,3.20
2018-09-25T09:18:28.288Z,3.10
2018-09-25T09:19:28.701Z,8.70
2018-09-25T09:20:27.966Z,8.90
2018-09-25T09:21:49.291Z,6.30
2018-09-25T09:22:49.418Z,7.20
2018-09-25T09:23:49.542Z,6.50
2018-09-25T09:24:49.799Z,7.60
2018-09-25T09:25:49.209Z,9.00
2018-09-25T09:26:49.494Z,4.90
2018-09-25T09:27:49.689Z,5.10
2018-09-25T09:29:11.173Z,7.60
2018-09-25T09:30:32.392Z,8.70
2018-09-25T09:31:32.473Z,6.50
2018-09-25T09:32:32.736Z,5.10
2018-09-25T09:33:33.114Z,6.90
2018-09-25T09:34:33.336Z,4.70
2018-09-25T09:35:32.643Z,9.30
2018-09-25T09:36:53.864Z,6.00
2018-09-25T09:37:54.139Z,4.50
2018-09-25T09:38:54.304Z,9.00
2018-09-25T09:39:54.398Z,6.90
2018-09-25T09:40:54.784Z,6.00
2018-09-25T09:41:54.220Z,7.00
2018-09-25T09:42:53.803Z,5.50
2018-09-25T09:43:54.128Z,5.50
2018-09-25T09:44:54.277Z,6.30
2018-09-25T09:46:36.364Z,6.50
2018-09-25T09:47:36.639Z,5.50
2018-09-25T09:48:36.715Z,7.30
2018-09-25T09:49:37.148Z,10.00
2018-09-25T09:50:36.472Z,9.00
2018-09-25T09:51:36.786Z,8.70
2018-09-25T09:52:57.809Z,5.00
2018-09-25T09:54:21.053Z,6.10
2018-09-25T09:55:21.236Z,6.30
2018-09-25T09:56:21.428Z,7.60
2018-09-25T09:57:42.993Z,7.10
2018-09-25T09:58:43.156Z,8.00
2018-09-25T09:59:43.634Z,5.90
2018-09-25T10:00:42.918Z,8.10
2018-09-25T10:01:43.281Z,5.00
2018-09-25T10:02:43.588Z,4.70
2018-09-25T10:03:45.333Z,5.90
2018-09-25T10:04:43.630Z,4.10
2018-09-25T10:06:03.694Z,6.20
2018-09-25T10:07:03.822Z,5.10
2018-09-25T10:08:03.950Z,5.50
2018-09-25T10:09:04.308Z,5.00
2018-09-25T10:10:04.571Z,3.40
2018-09-25T10:11:04.008Z,5.00
2018-09-25T10:12:04.410Z,4.30
2018-09-25T10:13:04.651Z,7.90
2018-09-25T10:14:03.723Z,4.50
2018-09-25T10:15:26.428Z,4.90
2018-09-25T10:16:47.775Z,4.90
2018-09-25T10:17:48.094Z,6.00
2018-09-25T10:18:48.276Z,4.80
2018-09-25T10:19:48.543Z,4.40
2018-09-25T10:20:47.945Z,8.20
2018-09-25T10:21:48.240Z,7.50
2018-09-25T10:22:48.571Z,3.90
2018-09-25T10:24:30.517Z,4.10
2018-09-25T10:25:30.860Z,7.10
2018-09-25T10:26:31.118Z,8.60
2018-09-25T10:27:31.404Z,3.40
2018-09-25T10:28:30.741Z,4.10
2018-09-25T10:29:30.743Z,3.90
2018-09-25T10:30:31.032Z,3.80
2018-09-25T10:31:31.438Z,3.70
2018-09-25T10:32:31.402Z,7.20
2018-09-25T10:33:31.453Z,5.80
2018-09-25T10:34:30.519Z,4.30
2018-09-25T10:35:30.751Z,6.30
2018-09-25T10:36:31.097Z,7.50
2018-09-25T10:37:31.314Z,8.50
2018-09-25T10:38:32.054Z,4.80
2018-09-25T10:39:31.279Z,4.90
2018-09-25T10:40:31.698Z,4.60
2018-09-25T10:41:31.003Z,4.30
2018-09-25T10:42:31.376Z,3.60
2018-09-25T10:43:30.643Z,7.10
2018-09-25T10:44:30.797Z,6.20
2018-09-25T10:45:31.056Z,5.30
2018-09-25T10:46:52.063Z,6.70
2018-09-25T10:47:52.186Z,6.30
2018-09-25T10:48:52.389Z,3.70
2018-09-25T10:50:13.600Z,4.20
2018-09-25T10:51:13.935Z,3.40
2018-09-25T10:52:35.032Z,4.70
2018-09-25T10:53:35.252Z,8.30
2018-09-25T10:54:35.547Z,6.80
2018-09-25T10:55:35.790Z,3.80
2018-09-25T10:56:36.263Z,4.00
2018-09-25T10:57:35.649Z,4.90
2018-09-25T10:58:35.990Z,5.10
2018-09-25T10:59:35.429Z,4.40
2018-09-25T11:00:35.602Z,4.10
2018-09-25T11:01:36.099Z,4.40
2018-09-25T11:02:35.589Z,5.10
2018-09-25T11:03:35.573Z,7.20
2018-09-25T11:04:36.751Z,5.80
2018-09-25T11:05:35.986Z,3.20
2018-09-25T11:06:35.303Z,7.70
2018-09-25T11:07:35.619Z,6.30
2018-09-25T11:08:35.996Z,3.20
2018-09-25T11:09:35.289Z,2.30
2018-09-25T11:10:35.712Z,4.00
2018-09-25T11:11:35.976Z,6.40
2018-09-25T11:13:58.782Z,5.00
2018-09-25T11:14:59.181Z,3.00
2018-09-25T11:16:00.172Z,4.30
2018-09-25T11:16:59.552Z,6.10
2018-09-25T11:17:58.874Z,3.50
2018-09-25T11:18:59.198Z,4.90
2018-09-25T11:19:59.495Z,4.20
2018-09-25T11:20:58.522Z,3.20
2018-09-25T11:21:58.709Z,7.80
2018-09-25T11:22:59.085Z,5.50
2018-09-25T11:23:59.548Z,5.20
2018-09-25T11:24:58.734Z,6.10
2018-09-25T11:25:58.944Z,4.70
2018-09-25T11:26:59.249Z,4.20
2018-09-25T11:27:58.631Z,3.80
2018-09-25T11:28:58.991Z,4.30
2018-09-25T11:30:20.391Z,4.80
2018-09-25T11:31:21.989Z,3.90
2018-09-25T11:32:21.055Z,6.90
2018-09-25T11:33:20.509Z,6.30
2018-09-25T11:34:20.580Z,6.10
2018-09-25T11:35:21.144Z,5.60
2018-09-25T11:36:20.614Z,4.80
2018-09-25T11:37:20.884Z,5.80
2018-09-25T11:38:21.334Z,3.60
2018-09-25T11:39:20.660Z,6.20
2018-09-25T11:40:20.814Z,4.00
2018-09-25T11:41:21.096Z,3.20
2018-09-25T11:42:44.615Z,6.40
2018-09-25T11:43:43.218Z,4.50
2018-09-25T11:44:42.796Z,6.90
2018-09-25T11:46:04.095Z,6.40
2018-09-25T11:47:04.621Z,4.70
2018-09-25T11:48:03.993Z,4.30
2018-09-25T11:49:25.226Z,4.40
2018-09-25T11:50:25.472Z,2.60
2018-09-25T11:51:26.055Z,3.90
2018-09-25T11:52:27.283Z,2.00
2018-09-25T11:53:27.084Z,3.90
2018-09-25T11:54:27.242Z,2.80
2018-09-25T11:55:25.403Z,5.20
2018-09-25T11:56:25.974Z,2.70
2018-09-25T11:57:25.801Z,6.10
2018-09-25T11:58:25.092Z,3.80
2018-09-25T11:59:25.365Z,4.30
2018-09-25T12:00:25.525Z,4.60
2018-09-25T12:01:25.817Z,5.30
2018-09-25T12:02:25.338Z,3.20
2018-09-25T12:03:25.902Z,2.20
2018-09-25T12:04:25.399Z,3.80
2018-09-25T12:05:25.916Z,5.50
2018-09-25T12:06:25.275Z,5.40
2018-09-25T12:07:25.493Z,3.10
2018-09-25T12:08:25.886Z,5.20
2018-09-25T12:09:25.373Z,3.70
2018-09-25T12:10:46.995Z,3.80
2018-09-25T12:11:48.081Z,5.60
2018-09-25T12:12:47.452Z,5.50
2018-09-25T12:13:47.981Z,6.20
2018-09-25T12:14:47.407Z,8.70
2018-09-25T12:15:48.342Z,2.50
2018-09-25T12:17:12.239Z,2.90
2018-09-25T12:18:33.597Z,5.90
2018-09-25T12:19:33.995Z,4.10
2018-09-25T12:20:34.427Z,3.00
2018-09-25T12:21:34.667Z,2.30
2018-09-25T12:22:34.064Z,3.90
2018-09-25T12:23:34.431Z,4.60
2018-09-25T12:24:34.319Z,4.30
2018-09-25T12:25:34.641Z,4.60
2018-09-25T12:26:34.261Z,3.10
2018-09-25T12:27:34.590Z,3.30
2018-09-25T12:28:35.269Z,3.70
2018-09-25T12:29:34.492Z,2.80
2018-09-25T12:30:54.881Z,2.60
2018-09-25T12:31:55.399Z,3.10
2018-09-25T12:32:56.322Z,4.40
2018-09-25T12:33:55.964Z,2.10
2018-09-25T12:34:55.825Z,2.70
2018-09-25T12:35:55.391Z,3.10
2018-09-25T12:37:16.649Z,4.70
2018-09-25T12:38:17.096Z,4.20
2018-09-25T12:39:17.521Z,3.20
2018-09-25T12:40:16.841Z,4.90
2018-09-25T12:41:17.269Z,2.10
2018-09-25T12:42:16.547Z,2.20
2018-09-25T12:43:17.961Z,6.30
2018-09-25T12:44:17.526Z,4.20
2018-09-25T12:45:17.999Z,2.00
2018-09-25T12:46:17.309Z,4.30
2018-09-25T12:47:16.856Z,3.70
2018-09-25T12:48:17.192Z,3.00
2018-09-25T12:49:16.429Z,2.80
2018-09-25T12:50:17.036Z,1.80
2018-09-25T12:51:17.316Z,4.90
2018-09-25T12:52:16.785Z,2.10
2018-09-25T12:53:17.227Z,4.30
2018-09-25T12:54:16.731Z,2.60
2018-09-25T12:55:17.289Z,2.40
2018-09-25T12:56:17.397Z,3.30
2018-09-25T12:57:17.052Z,3.60
2018-09-25T12:58:17.412Z,2.30
2018-09-25T12:59:16.871Z,3.70
2018-09-25T13:00:18.024Z,3.40
2018-09-25T13:01:17.404Z,4.60
2018-09-25T13:02:16.475Z,5.10
2018-09-25T13:03:17.203Z,6.30
2018-09-25T13:04:16.648Z,2.80
2018-09-25T13:05:17.040Z,3.30
2018-09-25T13:06:17.225Z,4.60
2018-09-25T13:07:16.645Z,4.50
2018-09-25T13:08:39.964Z,2.50
2018-09-25T13:09:38.513Z,2.50
2018-09-25T13:10:39.410Z,5.20
2018-09-25T13:12:04.194Z,4.30
2018-09-25T13:13:04.855Z,3.70
2018-09-25T13:14:08.743Z,4.70
2018-09-25T13:15:06.424Z,1.90
2018-09-25T13:16:04.550Z,3.90
2018-09-25T13:17:05.084Z,4.10
2018-09-25T13:18:05.245Z,3.10
2018-09-25T13:19:06.539Z,3.50
2018-09-25T13:20:06.483Z,4.30
2018-09-25T13:21:27.531Z,3.10
2018-09-25T13:22:27.015Z,4.40
2018-09-25T13:23:27.380Z,2.80
2018-09-25T13:24:26.979Z,3.30
2018-09-25T13:25:31.473Z,5.70
2018-09-25T13:26:27.219Z,2.10
2018-09-25T13:27:27.987Z,2.50
2018-09-25T13:28:28.035Z,3.10
2018-09-25T13:29:27.635Z,5.40
2018-09-25T13:30:27.001Z,3.70
2018-09-25T13:31:29.473Z,59.00
2018-09-25T13:32:27.168Z,19.10
2018-09-25T13:33:50.141Z,3.50
2018-09-25T13:34:51.475Z,4.50
2018-09-25T13:35:51.541Z,2.40
2018-09-25T13:36:53.149Z,2.80
2018-09-25T13:37:51.205Z,3.00
2018-09-25T13:38:50.494Z,2.20
2018-09-25T13:39:50.985Z,2.90
2018-09-25T13:40:50.235Z,4.80
2018-09-25T13:41:50.923Z,2.10
2018-09-25T13:42:50.480Z,2.00
2018-09-25T13:43:50.904Z,1.90
2018-09-25T13:44:50.312Z,2.00
2018-09-25T13:46:13.968Z,2.90
2018-09-25T13:47:14.465Z,3.10
2018-09-25T13:48:14.060Z,1.90
2018-09-25T13:49:14.498Z,4.10
2018-09-25T13:50:13.941Z,1.70
2018-09-25T13:51:14.008Z,3.90
2018-09-25T13:52:15.124Z,2.10
2018-09-25T13:53:14.769Z,1.40
2018-09-25T13:54:15.372Z,4.80
2018-09-25T13:55:13.533Z,2.00
2018-09-25T13:56:14.274Z,2.90
2018-09-25T13:57:15.710Z,3.10
2018-09-25T13:58:36.254Z,2.60
2018-09-25T13:59:37.507Z,4.30
2018-09-25T14:00:59.491Z,6.20
2018-09-25T14:01:59.397Z,3.50
2018-09-25T14:02:59.742Z,1.40
2018-09-25T14:03:58.908Z,4.50
2018-09-25T14:04:59.216Z,3.30
2018-09-25T14:06:20.318Z,4.40
2018-09-25T14:07:41.672Z,4.00
2018-09-25T14:08:42.065Z,3.60
2018-09-25T14:09:42.448Z,2.80
2018-09-25T14:10:41.580Z,2.70
2018-09-25T14:11:41.864Z,8.20
2018-09-25T14:12:42.091Z,5.60
2018-09-25T14:13:53.200Z,3.70
2018-09-25T14:15:02.432Z,3.30
2018-09-25T14:16:03.113Z,3.80
2018-09-25T14:17:04.564Z,5.00
2018-09-25T14:18:02.946Z,5.80
2018-09-25T14:19:04.387Z,10.10
2018-09-25T14:20:03.836Z,7.10
2018-09-25T14:21:25.132Z,9.20
2018-09-25T14:22:25.442Z,7.50
2018-09-25T14:23:26.959Z,5.70
2018-09-25T14:24:25.362Z,3.70
2018-09-25T14:25:25.972Z,2.00
2018-09-25T14:26:25.393Z,7.00
2018-09-25T14:27:26.363Z,3.70
2018-09-25T14:28:25.679Z,4.30
2018-09-25T14:29:26.074Z,2.90
2018-09-25T14:30:25.548Z,3.40
2018-09-25T14:31:26.157Z,3.40
2018-09-25T14:32:25.548Z,4.00
2018-09-25T14:33:26.566Z,3.60
2018-09-25T14:34:26.083Z,3.40
2018-09-25T14:35:25.626Z,2.90
2018-09-25T14:36:25.985Z,5.70
2018-09-25T14:37:46.751Z,4.20
2018-09-25T14:38:47.488Z,3.80
2018-09-25T14:39:46.754Z,4.30
2018-09-25T14:40:47.009Z,5.00
2018-09-25T14:41:47.210Z,3.20
2018-09-25T14:42:46.531Z,6.40
2018-09-25T14:43:48.390Z,2.90
2018-09-25T14:44:46.917Z,2.50
2018-09-25T14:45:47.173Z,2.80
2018-09-25T14:46:47.831Z,5.30
2018-09-25T14:47:47.542Z,6.90
2018-09-25T14:48:48.118Z,22.90
2018-09-25T14:49:46.628Z,6.00
2018-09-25T14:50:47.033Z,4.40
2018-09-25T14:51:47.164Z,5.00
2018-09-25T14:52:46.688Z,4.10
2018-09-25T14:53:47.374Z,4.20
2018-09-25T14:54:46.857Z,4.10
2018-09-25T14:55:47.262Z,2.90
2018-09-25T14:56:46.452Z,3.30
2018-09-25T14:57:46.854Z,4.00
2018-09-25T14:58:47.406Z,4.30
2018-09-25T14:59:46.933Z,4.00
2018-09-25T15:01:08.311Z,7.40
2018-09-25T15:02:08.510Z,5.00
2018-09-25T15:03:09.494Z,5.40
2018-09-25T15:04:09.091Z,4.90
2018-09-25T15:05:08.604Z,5.20
2018-09-25T15:06:09.909Z,4.10
2018-09-25T15:07:09.395Z,4.00
2018-09-25T15:08:09.722Z,5.70
2018-09-25T15:09:30.159Z,3.70
2018-09-25T15:10:31.460Z,7.40
2018-09-25T15:11:32.092Z,6.40
2018-09-25T15:12:52.501Z,5.40
2018-09-25T15:13:53.031Z,3.40
2018-09-25T15:15:14.274Z,3.10
2018-09-25T15:16:36.412Z,3.20
2018-09-25T15:17:36.750Z,9.10
2018-09-25T15:18:37.557Z,2.00
2018-09-25T15:19:37.285Z,2.70
2018-09-25T15:20:58.501Z,4.00
2018-09-25T15:21:59.276Z,5.50